Time;durP1;ratioP1;P1;durP2;ratioP2;P2;SDS_P1;SDS_P2;PMS_P1;PMS_P2;Temp;Humidity;BMP_temperature;BMP_pressure;BME280_temperature;BME280_humidity;BME280_pressure;Samples;Min_cycle;Max_cycle;Signal;HPM_P1;HPM_P2
2022/07/29 00:01:55;;;;;;;4.72;2.70;;;13.50;99.90;;;13.83;100.00;99644.38;5041824;27;119503;-75
2022/07/29 00:04:24;;;;;;;7.03;2.97;;;13.40;99.90;;;13.77;100.00;99642.97;5041776;27;119505;-76
2022/07/29 00:06:54;;;;;;;5.18;2.67;;;13.30;99.90;;;13.80;100.00;99643.09;5043172;27;128815;-75
2022/07/29 00:09:22;;;;;;;5.03;2.60;;;13.40;99.90;;;13.84;100.00;99646.00;5043161;27;129570;-77
2022/07/29 00:11:51;;;;;;;5.72;2.35;;;13.30;99.90;;;13.86;100.00;99637.47;5041533;27;119560;-76
2022/07/29 00:14:19;;;;;;;4.45;2.50;;;13.20;99.90;;;13.87;100.00;99639.88;5043585;27;118690;-75
2022/07/29 00:16:48;;;;;;;6.63;2.90;;;13.20;99.90;;;13.88;100.00;99636.00;5039491;27;129741;-76
2022/07/29 00:19:17;;;;;;;4.57;2.30;;;13.10;99.90;;;13.88;100.00;99644.19;5043244;27;129178;-76
2022/07/29 00:21:46;;;;;;;5.82;2.63;;;13.10;99.90;;;13.85;100.00;99642.09;5041368;27;119592;-75
2022/07/29 00:24:16;;;;;;;5.28;2.72;;;13.20;99.90;;;13.86;100.00;99638.25;5041598;27;119203;-75
2022/07/29 00:26:44;;;;;;;5.55;2.63;;;13.10;99.90;;;13.83;100.00;99641.66;5041032;27;129798;-75
2022/07/29 00:29:13;;;;;;;4.88;2.38;;;13.00;99.90;;;13.78;100.00;99641.84;5039812;27;129151;-76
2022/07/29 00:31:41;;;;;;;5.18;2.60;;;13.00;99.90;;;13.71;100.00;99647.00;5041372;27;119778;-75
2022/07/29 00:35:43;;;;;;;5.72;2.97;;;12.90;99.90;;;13.65;100.00;99647.19;5043795;27;119006;-75
2022/07/29 00:36:57;;;;;;;6.15;2.83;;;13.00;99.90;;;13.63;100.00;99646.75;5042568;27;130418;-75
2022/07/29 00:39:28;;;;;;;7.13;2.70;;;12.90;99.90;;;13.58;100.00;99643.38;5042795;27;128874;-76
2022/07/29 00:41:56;;;;;;;6.10;2.80;;;12.90;99.90;;;13.53;100.00;99647.09;5040004;27;121966;-77
2022/07/29 00:44:25;;;;;;;4.43;3.00;;;12.80;99.90;;;13.54;100.00;99642.44;5042968;27;121533;-77
2022/07/29 00:46:53;;;;;;;5.93;2.85;;;12.80;99.90;;;13.53;100.00;99638.91;5042611;27;128953;-75
2022/07/29 00:49:22;;;;;;;9.30;3.05;;;12.70;99.90;;;13.52;100.00;99639.25;5040772;27;129330;-76
2022/07/29 00:51:51;;;;;;;6.15;3.05;;;12.90;99.90;;;13.53;100.00;99635.41;5041593;27;119537;-77
2022/07/29 00:54:20;;;;;;;6.38;2.65;;;13.00;99.90;;;13.54;100.00;99632.34;5043937;27;120641;-75
2022/07/29 00:56:51;;;;;;;6.32;2.80;;;12.90;99.90;;;13.55;100.00;99635.88;5056635;27;130009;-75
2022/07/29 00:59:20;;;;;;;6.03;3.10;;;13.00;99.90;;;13.50;100.00;99634.13;5041235;27;128522;-76
2022/07/29 01:01:48;;;;;;;5.97;2.88;;;12.90;99.90;;;13.44;100.00;99632.69;5041026;27;120526;-76
2022/07/29 01:04:16;;;;;;;4.28;2.80;;;12.80;99.90;;;13.41;100.00;99638.81;5042927;27;118756;-75
2022/07/29 01:06:45;;;;;;;5.60;2.75;;;12.70;99.90;;;13.40;100.00;99642.66;5041343;27;129202;-76
2022/07/29 01:09:15;;;;;;;4.93;2.90;;;12.70;99.90;;;13.39;100.00;99641.84;5042767;27;129031;-76
2022/07/29 01:11:44;;;;;;;6.88;2.90;;;12.60;99.90;;;13.37;100.00;99637.84;5042807;27;118623;-77
2022/07/29 01:14:15;;;;;;;5.90;3.05;;;12.60;99.90;;;13.36;100.00;99636.28;5040692;27;119511;-76
2022/07/29 01:16:56;;;;;;;4.88;3.15;;;12.70;99.90;;;13.29;100.00;99632.09;5040644;27;131994;-77
2022/07/29 01:19:57;;;;;;;5.32;3.08;;;12.60;99.90;;;13.19;100.00;99627.00;5040430;27;129310;-75
2022/07/29 01:22:42;;;;;;;7.30;3.10;;;12.50;99.90;;;13.16;100.00;99641.25;5040402;27;119639;-74
2022/07/29 01:25:45;;;;;;;6.32;3.55;;;12.50;99.90;;;13.11;100.00;99636.00;5040940;27;119717;-73
2022/07/29 01:29:05;;;;;;;6.03;3.20;;;12.50;99.90;;;13.06;100.00;99636.19;5039089;27;130127;-76
2022/07/29 01:31:42;;;;;;;5.30;2.95;;;12.40;99.90;;;13.05;100.00;99640.03;5000397;28;129144;-75
2022/07/29 01:34:19;;;;;;;5.82;3.63;;;12.40;99.90;;;13.02;100.00;99629.78;4996746;28;122669;-76
2022/07/29 01:36:50;;;;;;;;;;;12.30;99.90;;;12.92;100.00;99623.53;4984200;28;121869;-75
2022/07/29 01:39:26;;;;;;;8.18;3.42;;;12.30;99.90;;;12.92;100.00;99631.72;4983938;28;129892;-75
2022/07/29 01:42:07;;;;;;;6.38;3.45;;;12.20;99.90;;;12.89;100.00;99623.41;4997095;28;129965;-75
2022/07/29 01:44:45;;;;;;;6.63;3.45;;;12.20;99.90;;;12.84;100.00;99624.38;4967776;28;118463;-74
2022/07/29 01:47:20;;;;;;;6.18;3.63;;;12.20;99.90;;;12.81;100.00;99637.81;4998001;28;119263;-76
2022/07/29 01:49:54;;;;;;;7.10;3.40;;;12.20;99.90;;;12.76;100.00;99625.97;5000840;28;130256;-77
2022/07/29 01:52:32;;;;;;;6.88;3.50;;;12.10;99.90;;;12.76;100.00;99627.88;4997715;28;130110;-77
2022/07/29 01:55:09;;;;;;;6.38;3.08;;;12.00;99.90;;;12.75;100.00;99623.59;4997780;28;119578;-77
2022/07/29 01:57:43;;;;;;;6.20;3.50;;;12.00;99.90;;;12.73;100.00;99632.06;4997521;28;119582;-77
2022/07/29 02:00:15;;;;;;;4.97;3.20;;;11.90;99.90;;;12.71;100.00;99628.06;4996039;28;129915;-77
2022/07/29 02:02:47;;;;;;;5.50;3.53;;;11.90;99.90;;;12.69;100.00;99625.66;5014724;27;129433;-76
2022/07/29 02:05:21;;;;;;;5.55;3.42;;;11.90;99.90;;;12.70;100.00;99631.91;5040550;27;119820;-77
2022/07/29 02:07:51;;;;;;;5.43;3.40;;;11.80;99.90;;;12.71;100.00;99630.78;5041608;27;119416;-77
2022/07/29 02:10:26;;;;;;;8.05;4.43;;;11.80;99.90;;;12.73;100.00;99636.69;5040052;27;129839;-75
2022/07/29 02:12:57;;;;;;;11.52;5.93;;;11.80;99.90;;;12.73;100.00;99633.97;5041845;27;128162;-76
2022/07/29 02:15:31;;;;;;;9.82;5.75;;;11.80;99.90;;;12.70;100.00;99635.44;5039790;27;119823;-77
2022/07/29 02:18:05;;;;;;;6.63;4.00;;;11.90;99.90;;;12.66;100.00;99630.97;5040219;27;119506;-76
2022/07/29 02:20:35;;;;;;;5.35;3.10;;;11.90;99.90;;;12.60;100.00;99641.19;5038272;27;129900;-75
2022/07/29 02:23:05;;;;;;;7.93;4.25;;;11.90;1.00;;;12.55;100.00;99646.81;5041445;27;128770;-75
2022/07/29 02:25:34;;;;;;;6.03;3.47;;;12.00;1.00;;;12.56;100.00;99649.22;5037300;27;121960;-77
2022/07/29 02:28:04;;;;;;;8.02;4.40;;;12.00;1.00;;;12.61;100.00;99639.31;5039543;27;121892;-75
2022/07/29 02:30:38;;;;;;;5.88;3.67;;;11.90;1.00;;;12.64;100.00;99635.94;5039620;27;129917;-76
2022/07/29 02:33:08;;;;;;;5.80;3.40;;;11.90;1.00;;;12.68;100.00;99636.88;5039401;27;130065;-77
2022/07/29 02:35:39;;;;;;;8.07;3.92;;;11.90;1.00;;;12.68;100.00;99643.09;5024763;27;118874;-76
2022/07/29 02:40:58;;;;;;;7.32;3.78;;;11.90;1.00;;;12.69;100.00;99643.94;5042783;27;130167;-75
2022/07/29 02:43:29;;;;;;;6.55;4.22;;;11.90;1.00;;;12.73;100.00;99647.59;5043379;27;130081;-76
2022/07/29 02:46:01;;;;;;;5.75;3.58;;;12.00;1.00;;;12.74;100.00;99643.75;5043227;27;119634;-75
2022/07/29 02:48:38;;;;;;;6.88;3.72;;;12.10;1.00;;;12.79;100.00;99651.75;5045383;27;118371;-77
2022/07/29 02:51:13;;;;;;;7.38;3.65;;;12.10;1.00;;;12.86;100.00;99652.06;5043610;27;128889;-75
2022/07/29 02:53:45;;;;;;;6.13;3.63;;;12.20;1.00;;;12.93;100.00;99651.56;5044354;27;129786;-73
2022/07/29 02:56:18;;;;;;;7.95;3.95;;;12.20;1.00;;;12.99;100.00;99644.03;5044988;27;119631;-76
2022/07/29 02:58:58;;;;;;;8.50;4.35;;;12.20;1.00;;;13.06;100.00;99655.25;5042730;27;119220;-76
2022/07/29 03:01:33;;;;;;;8.70;4.32;;;12.30;1.00;;;13.15;100.00;99647.03;5042287;27;131091;-75
2022/07/29 03:04:05;;;;;;;8.73;4.18;;;12.40;1.00;;;13.23;100.00;99655.19;5042282;27;129721;-75
2022/07/29 03:06:37;;;;;;;6.28;3.83;;;12.40;1.00;;;13.27;100.00;99658.84;5045013;27;119304;-75
2022/07/29 03:09:07;;;;;;;6.15;3.58;;;12.40;1.00;;;13.37;100.00;99676.00;5028386;27;118498;-76
2022/07/29 03:11:37;;;;;;;6.18;3.75;;;12.50;1.00;;;13.43;100.00;99666.53;5044567;27;129349;-75
2022/07/29 03:14:07;;;;;;;7.45;3.50;;;12.50;1.00;;;13.69;100.00;99665.63;5044120;27;128420;-74
2022/07/29 03:16:37;;;;;;;8.15;2.35;;;12.80;1.00;;;14.83;100.00;99657.47;5041280;27;122031;-75
2022/07/29 03:19:07;;;;;;;5.70;2.15;;;13.70;1.00;;;16.02;100.00;99659.47;5042676;27;121564;-73
2022/07/29 03:21:35;;;;;;;10.32;2.00;;;14.60;99.90;;;17.11;100.00;99655.13;5040680;27;130954;-74
2022/07/29 03:24:04;;;;;;;3.13;1.33;;;15.10;99.90;;;18.27;94.39;99663.03;5042129;27;129509;-77
2022/07/29 03:26:33;;;;;;;24.77;3.28;;;15.80;99.90;;;18.68;86.84;99669.00;5042566;27;119244;-77
2022/07/29 03:29:01;;;;;;;4.40;1.80;;;16.20;99.90;;;18.27;85.16;99660.28;5042483;27;119416;-77
2022/07/29 03:31:29;;;;;;;5.07;2.20;;;15.40;99.90;;;17.71;87.63;99669.56;5041593;27;130602;-77
2022/07/29 03:33:59;;;;;;;4.07;2.00;;;14.80;99.90;;;17.22;90.14;99665.22;5042326;27;130056;-76
2022/07/29 03:36:28;;;;;;;5.25;2.30;;;14.40;99.90;;;16.82;93.20;99660.59;5044220;27;118599;-75
2022/07/29 03:38:58;;;;;;;4.43;1.95;;;14.30;99.90;;;16.61;94.92;99660.81;5042473;27;119437;-77
2022/07/29 03:41:27;;;;;;;6.35;2.50;;;14.30;99.90;;;16.40;97.35;99665.69;5040633;27;129873;-75
2022/07/29 03:43:56;;;;;;;3.25;1.92;;;14.20;99.90;;;16.10;100.00;99658.53;5040528;27;129701;-75
2022/07/29 03:46:27;;;;;;;4.50;2.20;;;14.20;99.90;;;15.87;100.00;99676.59;5041886;27;120170;-73
2022/07/29 03:49:02;;;;;;;4.50;2.50;;;14.20;99.90;;;15.60;100.00;99667.91;5042052;27;120018;-75
2022/07/29 03:51:31;;;;;;;4.68;2.13;;;14.20;99.90;;;15.45;100.00;99664.69;5040513;27;130513;-74
2022/07/29 03:54:00;;;;;;;5.93;2.55;;;14.20;99.90;;;15.42;100.00;99662.63;5043126;27;130038;-75
2022/07/29 03:56:30;;;;;;;5.55;2.60;;;14.30;99.90;;;15.41;100.00;99665.69;5057718;27;119734;-77
2022/07/29 03:58:59;;;;;;;4.20;2.30;;;14.30;99.90;;;15.60;100.00;99670.63;5042381;27;119330;-76
2022/07/29 04:01:29;;;;;;;6.03;2.38;;;14.40;99.90;;;15.64;100.00;99668.78;5043792;27;128591;-77
2022/07/29 04:04:00;;;;;;;3.78;1.83;;;14.50;99.90;;;15.58;100.00;99665.50;5041363;27;129548;-76
2022/07/29 04:06:28;;;;;;;4.55;2.40;;;14.60;99.90;;;15.59;100.00;99671.75;5040569;27;122148;-76
2022/07/29 04:08:57;;;;;;;3.72;2.30;;;14.60;99.90;;;15.87;100.00;99671.13;5041450;27;121826;-73
2022/07/29 04:11:25;;;;;;;3.67;2.22;;;14.70;99.90;;;16.05;100.00;99672.47;5040019;27;129858;-78
2022/07/29 04:13:54;;;;;;;4.47;2.40;;;14.90;99.90;;;16.23;100.00;99674.97;5041630;27;129410;-76
2022/07/29 04:16:22;;;;;;;4.75;2.30;;;14.90;99.90;;;16.43;100.00;99675.94;5043689;27;118412;-75
2022/07/29 04:18:51;;;;;;;4.20;2.13;;;15.00;99.90;;;16.56;100.00;99684.91;5043736;27;118204;-75
2022/07/29 04:21:21;;;;;;;4.55;2.30;;;15.10;99.90;;;16.48;100.00;99681.97;5041560;27;131432;-78
2022/07/29 04:23:50;;;;;;;4.72;2.42;;;15.10;99.90;;;16.56;100.00;99679.44;5043478;27;128289;-75
2022/07/29 04:26:20;;;;;;;3.45;2.17;;;15.20;99.90;;;16.46;100.00;99678.78;5041542;27;119445;-76
2022/07/29 04:28:48;;;;;;;4.60;2.47;;;15.10;99.90;;;16.42;100.00;99683.34;5041342;27;119588;-76
2022/07/29 04:31:17;;;;;;;4.20;2.33;;;15.20;99.90;;;16.48;100.00;99681.97;5039842;27;130120;-77
2022/07/29 04:33:46;;;;;;;5.20;2.42;;;15.30;99.90;;;16.16;100.00;99676.34;5041232;27;129400;-77
2022/07/29 04:36:14;;;;;;;4.22;2.22;;;15.00;99.90;;;15.94;100.00;99687.75;5043222;27;118940;-76
2022/07/29 04:38:44;;;;;;;3.08;2.00;;;15.00;99.90;;;15.89;100.00;99682.50;5041296;27;120907;-75
2022/07/29 04:41:13;;;;;;;3.15;1.88;;;15.00;99.90;;;15.82;100.00;99686.63;5043065;27;128996;-75
2022/07/29 04:43:41;;;;;;;3.72;2.10;;;15.00;99.90;;;15.57;100.00;99695.94;5040889;27;129361;-78
2022/07/29 04:46:10;;;;;;;3.90;2.00;;;14.80;99.90;;;15.49;100.00;99702.28;5041205;27;119651;-76
2022/07/29 04:48:38;;;;;;;3.90;2.60;;;14.80;99.90;;;15.44;100.00;99698.66;5041753;27;118720;-75
2022/07/29 04:51:07;;;;;;;4.68;2.42;;;14.80;99.90;;;15.31;100.00;99705.22;5040907;27;130345;-78
2022/07/29 04:53:35;;;;;;;5.88;2.80;;;14.60;99.90;;;15.53;100.00;99700.47;5042611;27;129897;-74
2022/07/29 04:56:06;;;;;;;4.65;2.45;;;14.80;99.90;;;16.05;100.00;99707.25;5040127;27;122712;-76
2022/07/29 04:58:36;;;;;;;3.95;2.53;;;15.10;99.90;;;15.95;100.00;99706.56;5042907;27;121609;-76
2022/07/29 05:01:04;;;;;;;4.78;2.78;;;14.80;99.90;;;15.80;100.00;99705.31;5042449;27;130794;-74
2022/07/29 05:03:33;;;;;;;5.32;2.55;;;14.70;99.90;;;15.67;100.00;99709.16;5042825;27;129492;-74
2022/07/29 05:06:02;;;;;;;5.93;3.17;;;14.60;99.90;;;15.80;100.00;99715.47;5041046;27;119603;-77
2022/07/29 05:08:30;;;;;;;5.65;2.80;;;14.70;99.90;;;16.18;100.00;99715.09;5041212;27;119237;-77
2022/07/29 05:10:59;;;;;;;4.75;2.90;;;14.90;99.90;;;16.57;100.00;99713.91;5040229;27;129983;-77
2022/07/29 05:13:29;;;;;;;4.03;2.67;;;15.00;99.90;;;16.95;100.00;99712.66;5026096;27;128375;-78
2022/07/29 05:15:58;;;;;;;4.90;2.95;;;15.20;99.90;;;17.12;98.38;99715.09;5041272;27;119742;-78
2022/07/29 05:18:26;;;;;;;6.90;3.10;;;15.10;99.90;;;16.50;100.00;99715.31;5040901;27;119782;-79
2022/07/29 05:20:55;;;;;;;5.90;2.95;;;14.80;99.90;;;16.04;100.00;99709.19;5039439;27;129507;-79
2022/07/29 05:23:23;;;;;;;4.97;3.50;;;14.60;99.90;;;15.66;100.00;99726.72;5040702;27;129952;-78
2022/07/29 05:25:52;;;;;;;4.32;3.13;;;14.50;99.90;;;15.75;100.00;99726.59;5039577;27;119106;-76
2022/07/29 05:28:20;;;;;;;5.00;2.97;;;14.60;99.90;;;15.62;100.00;99723.06;5040710;27;119470;-77
2022/07/29 05:30:51;;;;;;;6.15;3.80;;;14.50;99.90;;;15.17;100.00;99734.81;5040981;27;129973;-81
2022/07/29 05:33:20;;;;;;;5.95;3.65;;;14.30;99.90;;;15.18;100.00;99729.00;5040555;27;129605;-77
2022/07/29 05:35:48;;;;;;;5.40;3.85;;;14.30;99.90;;;15.26;100.00;99739.03;5043574;27;118863;-78
2022/07/29 05:38:17;;;;;;;5.65;3.75;;;14.30;99.90;;;15.19;100.00;99741.53;5042567;27;119272;-79
2022/07/29 05:40:45;;;;;;;6.15;4.57;;;14.40;99.90;;;15.16;100.00;99738.66;5041272;27;129690;-78
2022/07/29 05:43:14;;;;;;;8.60;3.80;;;14.30;99.90;;;15.43;100.00;99749.00;5042078;27;129239;-77
2022/07/29 05:45:43;;;;;;;5.93;3.70;;;14.40;99.90;;;15.21;100.00;99742.00;5039345;27;122219;-76
2022/07/29 05:48:12;;;;;;;6.75;4.00;;;14.30;99.90;;;14.89;100.00;99749.03;5040338;27;121784;-77
2022/07/29 05:50:41;;;;;;;6.10;4.55;;;14.20;99.90;;;14.94;100.00;99746.06;5039998;27;129790;-78
2022/07/29 05:53:09;;;;;;;6.88;3.65;;;14.30;99.90;;;15.03;100.00;99751.47;5040645;27;130126;-79
2022/07/29 05:55:38;;;;;;;6.63;4.22;;;14.30;99.90;;;15.04;100.00;99751.16;5039445;27;119368;-76
2022/07/29 05:58:06;;;;;;;7.57;4.57;;;14.40;99.90;;;15.07;100.00;99753.22;5041254;27;119481;-78
2022/07/29 06:00:35;;;;;;;5.85;4.15;;;14.50;99.90;;;15.07;100.00;99750.47;5043691;27;130522;-79
2022/07/29 06:03:03;;;;;;;5.80;3.63;;;14.40;99.90;;;15.13;100.00;99753.00;5042715;27;129945;-78
2022/07/29 06:05:34;;;;;;;4.80;3.58;;;14.50;99.90;;;14.93;100.00;99766.38;5042863;27;119394;-78
2022/07/29 06:08:02;;;;;;;5.97;3.95;;;14.40;99.90;;;14.89;100.00;99755.28;5053690;27;119254;-76
2022/07/29 06:10:30;;;;;;;5.57;3.75;;;14.30;99.90;;;15.08;100.00;99757.56;5058903;27;130230;-80
2022/07/29 06:12:59;;;;;;;6.80;3.95;;;14.50;99.90;;;15.36;100.00;99754.22;5060132;27;129244;-75
2022/07/29 06:15:27;;;;;;;5.80;3.97;;;14.60;99.90;;;15.45;100.00;99765.84;5064393;27;119822;-77
2022/07/29 06:17:56;;;;;;;6.80;4.03;;;14.70;99.90;;;15.59;100.00;99759.28;5049106;27;118066;-75
2022/07/29 06:20:25;;;;;;;7.47;4.07;;;14.70;99.90;;;15.66;100.00;99756.81;5062270;27;129884;-76
2022/07/29 06:22:55;;;;;;;5.40;3.58;;;14.90;99.90;;;15.93;100.00;99751.84;5065941;27;129145;-75
2022/07/29 06:25:23;;;;;;;6.25;4.30;;;15.10;99.90;;;16.10;100.00;99751.63;5064420;27;119422;-75
2022/07/29 06:27:52;;;;;;;5.53;4.00;;;15.20;99.90;;;15.94;100.00;99753.44;5066420;27;119775;-79
2022/07/29 06:30:20;;;;;;;7.10;4.10;;;15.10;99.90;;;16.25;100.00;99746.59;5062731;27;129836;-77
2022/07/29 06:32:49;;;;;;;6.57;4.00;;;15.20;99.90;;;16.05;100.00;99749.13;5080451;27;129690;-75
2022/07/29 06:35:17;;;;;;;5.97;4.20;;;15.10;99.90;;;16.03;100.00;99748.66;5063542;27;121895;-78
2022/07/29 06:37:46;;;;;;;6.55;4.45;;;15.10;99.90;;;16.13;100.00;99747.41;5064721;27;122317;-79
2022/07/29 06:43:02;;;;;;;5.15;3.22;;;15.40;99.90;;;16.53;100.00;99747.47;5062924;27;129282;-75
2022/07/29 06:45:30;;;;;;;5.78;3.30;;;15.40;99.90;;;16.56;100.00;99756.16;5063616;27;119394;-80
2022/07/29 06:47:59;;;;;;;6.55;3.42;;;15.30;99.90;;;16.58;100.00;99751.09;5063632;27;119350;-76
2022/07/29 06:50:27;;;;;;;4.72;3.30;;;15.30;99.90;;;16.55;100.00;99744.41;5065040;27;130055;-76
2022/07/29 06:52:56;;;;;;;5.38;2.80;;;15.30;99.90;;;16.77;98.81;99745.81;5064280;27;129555;-78
2022/07/29 06:55:26;;;;;;;4.43;3.17;;;15.50;99.90;;;16.77;98.70;99745.81;5063279;27;119630;-75
2022/07/29 06:57:55;;;;;;;7.13;3.08;;;15.40;99.90;;;16.75;100.00;99756.34;5062646;27;119359;-79
2022/07/29 07:00:24;;;;;;;4.57;2.70;;;15.60;99.90;;;16.72;99.37;99757.03;5062161;27;130083;-80
2022/07/29 07:02:52;;;;;;;4.72;2.67;;;15.60;99.90;;;16.89;98.56;99754.03;5062619;27;129406;-78
2022/07/29 07:05:58;;;;;;;4.97;2.72;;;15.70;99.90;;;17.16;96.06;99761.81;5063936;27;119675;-75
2022/07/29 07:11:14;;;;;;;4.95;2.53;;;15.60;99.90;;;17.09;96.64;99767.88;5065646;27;129754;-78
2022/07/29 07:13:42;;;;;;;4.70;2.90;;;15.70;99.90;;;17.12;95.72;99772.69;5064927;27;129478;-77
2022/07/29 07:16:11;;;;;;;4.15;2.58;;;15.80;99.90;;;16.83;99.25;99766.34;5047615;27;119163;-76
2022/07/29 07:18:40;;;;;;;3.92;2.42;;;15.70;99.90;;;16.87;98.32;99772.75;5063548;27;119335;-76
2022/07/29 07:21:08;;;;;;;3.80;2.10;;;15.70;99.90;;;16.83;95.66;99769.09;5061004;27;130346;-76
2022/07/29 07:23:37;;;;;;;2.97;2.05;;;15.70;99.90;;;16.86;97.30;99771.19;5062548;27;130696;-75
2022/07/29 07:26:06;;;;;;;3.97;1.90;;;15.90;99.90;;;17.17;93.44;99780.69;5061112;27;122329;-77
2022/07/29 07:28:36;;;;;;;3.05;2.15;;;16.00;99.90;;;17.17;93.27;99768.88;5064548;27;120987;-76
2022/07/29 07:31:04;;;;;;;3.58;2.17;;;15.80;99.90;;;17.45;91.02;99774.34;5061043;27;129632;-76
2022/07/29 07:33:33;;;;;;;3.47;1.98;;;16.10;99.90;;;17.28;92.05;99775.50;5064406;27;128288;-75
2022/07/29 07:36:01;;;;;;;3.30;1.95;;;16.00;99.90;;;17.12;94.85;99778.16;5060667;27;119707;-75
2022/07/29 07:38:30;;;;;;;3.72;2.35;;;16.00;99.90;;;17.11;94.42;99776.59;5062696;27;119246;-73
2022/07/29 07:40:59;;;;;;;3.45;2.10;;;15.80;99.90;;;17.14;94.12;99784.13;5062322;27;129801;-75
2022/07/29 07:43:28;;;;;;;5.50;2.42;;;15.90;99.90;;;17.50;93.26;99792.50;5062524;27;129927;-77
2022/07/29 07:45:58;;;;;;;5.22;3.00;;;16.00;99.90;;;17.44;91.15;99789.22;5062184;27;120658;-76
2022/07/29 07:48:27;;;;;;;3.67;2.38;;;16.10;99.90;;;17.36;91.80;99790.19;5062307;27;119526;-77
2022/07/29 07:50:56;;;;;;;3.83;2.38;;;16.10;99.90;;;17.34;90.77;99795.22;5060846;27;129611;-76
2022/07/29 07:53:25;;;;;;;4.00;2.40;;;16.20;99.90;;;17.47;89.66;99801.44;5062934;27;129542;-77
2022/07/29 07:55:53;;;;;;;3.90;2.40;;;16.30;99.90;;;17.67;89.25;99802.34;5062528;27;119941;-75
2022/07/29 07:58:22;;;;;;;4.05;2.53;;;16.50;99.90;;;17.51;88.88;99805.88;5062506;27;120049;-77
2022/07/29 08:00:51;;;;;;;5.25;2.80;;;16.40;99.90;;;17.64;89.85;99808.56;5047025;27;129071;-75
2022/07/29 08:03:21;;;;;;;5.55;2.50;;;16.40;99.90;;;17.90;89.28;99813.59;5061850;27;129966;-76
2022/07/29 08:05:51;;;;;;;4.18;2.30;;;16.60;99.90;;;18.24;86.92;99814.03;5064119;27;119109;-77
2022/07/29 08:08:20;;;;;;;4.80;2.58;;;16.80;99.90;;;18.14;88.31;99813.41;5062284;27;119701;-76
2022/07/29 08:10:55;;;;;;;5.65;2.47;;;16.70;99.90;;;17.79;87.52;99827.81;5061650;27;129883;-75
2022/07/29 08:13:27;;;;;;;3.57;2.07;;;16.50;99.90;;;17.76;87.01;99820.28;5060745;27;129919;-74
2022/07/29 08:16:00;;;;;;;2.78;1.90;;;16.40;99.90;;;18.11;85.69;99822.34;5060186;27;122035;-77
2022/07/29 08:18:32;;;;;;;4.30;2.20;;;16.70;99.90;;;17.94;85.71;99828.22;5064303;27;121128;-76
2022/07/29 08:21:01;;;;;;;2.95;1.85;;;16.60;99.90;;;18.03;85.43;99825.28;5064853;27;130540;-76
2022/07/29 08:23:34;;;;;;;3.00;1.70;;;16.70;99.90;;;17.87;83.53;99820.56;5052123;27;130264;-76
2022/07/29 08:26:03;;;;;;;1.90;1.50;;;16.60;99.90;;;18.29;82.55;99831.06;5043557;27;119383;-78
2022/07/29 08:28:31;;;;;;;2.38;1.50;;;16.80;99.90;;;18.46;80.63;99837.31;5041510;27;119850;-77
2022/07/29 08:31:00;;;;;;;2.00;1.45;;;17.00;99.90;;;18.86;77.97;99839.03;5042782;27;128987;-79
2022/07/29 08:33:30;;;;;;;2.05;1.45;;;17.30;99.90;;;19.14;76.02;99838.84;5026866;27;128344;-77
2022/07/29 08:35:59;;;;;;;2.65;1.60;;;17.30;99.90;;;19.35;75.78;99834.94;5042745;27;119231;-77
2022/07/29 08:38:28;;;;;;;2.92;1.70;;;17.50;99.90;;;18.36;79.89;99832.38;5040094;27;119133;-77
2022/07/29 08:40:57;;;;;;;3.35;1.60;;;16.60;99.90;;;17.83;82.74;99830.63;5040179;27;129749;-76
2022/07/29 08:43:26;;;;;;;2.97;1.45;;;16.50;99.90;;;18.20;81.99;99835.94;5041348;27;130179;-77
2022/07/29 08:45:54;;;;;;;1.80;1.40;;;16.80;99.90;;;18.73;79.52;99837.53;5041681;27;119513;-78
2022/07/29 08:48:24;;;;;;;1.98;1.30;;;17.20;99.90;;;19.49;74.56;99842.69;5040116;27;119291;-77
2022/07/29 08:50:57;;;;;;;2.80;1.48;;;17.50;99.90;;;19.61;74.38;99841.75;5043033;27;128427;-76
2022/07/29 08:53:29;;;;;;;2.38;1.50;;;17.70;99.90;;;19.40;74.43;99856.69;5042287;27;130526;-77
2022/07/29 08:55:59;;;;;;;2.35;1.60;;;17.60;99.90;;;18.81;76.95;99847.56;5039190;27;119424;-77
2022/07/29 08:58:32;;;;;;;2.65;1.42;;;17.10;99.90;;;18.41;79.50;99840.34;5041530;27;119683;-76
2022/07/29 09:01:04;;;;;;;2.22;1.58;;;16.80;99.90;;;18.19;80.07;99848.06;5040932;27;129243;-78
2022/07/29 09:03:35;;;;;;;2.35;1.50;;;16.80;99.90;;;18.08;78.73;99850.53;5040881;27;129726;-78
2022/07/29 09:06:06;;;;;;;2.58;1.50;;;16.80;99.90;;;18.78;77.07;99842.78;5041687;27;121448;-78
2022/07/29 09:08:35;;;;;;;1.58;1.30;;;17.30;99.90;;;19.21;73.51;99849.19;5042979;27;121339;-76
2022/07/29 09:11:04;;;;;;;2.70;1.63;;;17.50;99.90;;;19.54;72.70;99856.97;5042637;27;129395;-79
2022/07/29 09:13:33;;;;;;;2.55;1.70;;;17.70;99.90;;;19.49;71.30;99853.69;5042872;27;128422;-76
2022/07/29 09:16:02;;;;;;;3.60;1.65;;;17.50;99.90;;;18.62;74.47;99851.84;5040692;27;119950;-78
2022/07/29 09:18:38;;;;;;;3.08;1.52;;;16.90;99.90;;;18.74;75.62;99853.66;5040559;27;120444;-77
2022/07/29 09:24:07;;;;;;;3.60;1.80;;;17.40;99.90;;;19.56;72.85;99857.38;5040730;27;129320;-80
2022/07/29 09:26:39;;;;;;;3.38;1.38;;;17.40;99.90;;;20.36;69.82;99853.31;5025818;27;118522;-78
2022/07/29 09:29:12;;;;;;;4.05;1.50;;;18.20;99.90;;;20.97;64.20;99857.00;5041128;27;119318;-80
2022/07/29 09:31:44;;;;;;;1.70;1.27;;;18.10;99.90;;;21.21;63.23;99854.94;5039596;27;130400;-79
2022/07/29 09:34:15;;;;;;;2.50;1.40;;;18.50;99.90;;;21.55;61.27;99850.28;5040522;27;129324;-80
2022/07/29 09:36:49;;;;;;;1.80;1.40;;;18.50;99.90;;;21.84;59.75;99856.88;5056261;27;119339;-80
2022/07/29 09:39:29;;;;;;;6.10;1.30;;;18.80;93.40;;;21.87;60.05;99847.81;5039293;27;120404;-78
2022/07/29 09:42:02;;;;;;;3.75;1.70;;;18.80;96.80;;;21.80;59.95;99845.00;5042214;27;129736;-79
2022/07/29 09:44:44;;;;;;;2.05;1.38;;;18.30;99.90;;;21.50;62.64;99840.34;5042089;27;128465;-77
2022/07/29 09:47:13;;;;;;;3.30;1.50;;;18.90;99.90;;;21.03;64.17;99844.47;5025756;27;118799;-76
2022/07/29 09:49:57;;;;;;;2.38;1.50;;;18.80;99.90;;;21.19;62.91;99833.22;5044898;27;118974;-79
2022/07/29 09:52:29;;;;;;;3.35;1.58;;;18.50;99.90;;;21.50;63.19;99829.31;5045758;27;129510;-78
2022/07/29 09:55:07;;;;;;;3.03;1.48;;;18.80;99.90;;;21.49;62.88;99824.94;5028876;27;128709;-80
2022/07/29 09:57:35;;;;;;;2.13;1.40;;;18.90;99.90;;;21.64;63.63;99827.88;5042821;27;121891;-78
2022/07/29 10:00:08;;;;;;;2.28;1.17;;;19.20;97.40;;;21.76;61.98;99830.34;5043877;27;121523;-79
2022/07/29 10:02:44;;;;;;;3.42;1.50;;;19.20;93.60;;;21.71;61.44;99823.22;5043434;27;130073;-78
2022/07/29 10:05:23;;;;;;;2.42;1.30;;;18.90;95.70;;;21.58;61.65;99823.84;5044055;27;129359;-80
2022/07/29 10:07:55;;;;;;;3.08;1.50;;;19.10;93.60;;;21.75;60.87;99817.72;5028928;27;118664;-78
2022/07/29 10:10:29;;;;;;;4.35;1.40;;;18.90;93.50;;;21.76;60.63;99824.06;5044139;27;119356;-81
2022/07/29 10:12:59;;;;;;;2.70;1.50;;;18.90;93.50;;;21.59;62.40;99822.69;5045431;27;129296;-80
2022/07/29 10:15:31;;;;;;;4.18;1.40;;;19.20;94.10;;;21.71;61.35;99817.69;5043804;27;129105;-79
2022/07/29 10:18:00;;;;;;;2.13;1.30;;;19.40;89.80;;;21.86;60.92;99812.28;5046309;27;119870;-80
2022/07/29 10:20:29;;;;;;;2.45;1.58;;;19.70;82.20;;;22.03;60.04;99821.91;5043867;27;119679;-77
2022/07/29 10:22:59;;;;;;;4.85;1.63;;;19.50;86.40;;;21.77;63.25;99807.09;5054568;27;130360;-77
2022/07/29 10:25:28;;;;;;;1.67;1.30;;;19.60;92.60;;;21.85;62.08;99814.28;5063495;27;129793;-75
2022/07/29 10:27:57;;;;;;;5.05;1.70;;;19.70;84.10;;;21.99;60.25;99810.84;5048509;27;118567;-71
2022/07/29 10:30:27;;;;;;;3.25;1.33;;;19.30;73.80;;;21.96;60.63;99806.09;5063510;27;119968;-75
2022/07/29 10:33:21;;;;;;;2.17;1.30;;;19.50;81.00;;;22.05;60.78;99803.00;5065676;27;129712;-79
2022/07/29 10:36:15;;;;;;;5.22;1.58;;;19.80;81.10;;;22.01;59.85;99807.69;5062430;27;129225;-78
2022/07/29 10:38:53;;;;;;;2.75;1.35;;;19.40;78.30;;;21.96;59.00;99811.59;5064445;27;121124;-77